Cheyenne — 9HAK5 — position and weather

sailwx.info

Track history (hours):
 
Tides and Currents Weather Stations Pressure Air Temp Water Temp Dewpoint Dewpoint Depression Visibility Wind Speed Wind Dir Waves Ship Positions

Cheyenne

Last reported at 2017-Feb-18 10:28 UTC. Time now 2017-Feb-23 16:06 UTC.
Position N 45°33' E 036°51'.

Length 133 m; draft 2.8 m.

Type: Ship. MMSI: 249607000.

Date/timePositionNaut miles runAvg speedWind from/ knotsBaromVisibWave heightAir tempDewpointWater temp
2017-Feb-18 10:28N 45°33' E 036°51'5 5.1
2017-Feb-18 09:28N 45°29' E 036°46'6 7.1
2017-Feb-18 08:33N 45°23' E 036°42'9 9.0
2017-Feb-18 07:33N 45°19' E 036°31'5 5.0
2017-Feb-18 06:33N 45°14' E 036°29'1 1.0
2017-Feb-18 05:24N 45°13' E 036°30'0 0.0
2017-Feb-18 04:30N 45°13' E 036°30'0 0.0
2017-Feb-18 02:09N 45°13' E 036°30'0 0.0
2017-Feb-18 01:33N 45°13' E 036°30'0 0.0
2017-Feb-18 00:09N 45°13' E 036°30'0 0.0
2017-Feb-17 22:21N 45°13' E 036°30'0 0.0
2017-Feb-17 20:24N 45°13' E 036°30'0 0.0
2017-Feb-17 19:24N 45°13' E 036°30'0 0.0
2017-Feb-17 18:33N 45°13' E 036°30'0 0.0
2017-Feb-17 17:21N 45°13' E 036°30'0 0.1
2017-Feb-17 16:30N 45°13' E 036°30'0 0.0
2017-Feb-17 15:06N 45°13' E 036°29'0 0.0
2017-Feb-17 14:33N 45°13' E 036°29'0 0.0
2017-Feb-17 13:30N 45°13' E 036°29'0 0.0
2017-Feb-17 12:30N 45°13' E 036°29'0 0.0
2017-Feb-17 11:33N 45°13' E 036°29'0 0.0
2017-Feb-17 10:33N 45°13' E 036°30'0 0.0
2017-Feb-17 09:33N 45°13' E 036°30'0 0.0
2017-Feb-17 08:30N 45°13' E 036°30'0 0.0
2017-Feb-17 07:33N 45°13' E 036°30'0 0.0
2017-Feb-17 06:27N 45°13' E 036°30'0 0.0
2017-Feb-17 05:33N 45°13' E 036°30'0 0.0
2017-Feb-17 04:30N 45°13' E 036°30'0 0.0
2017-Feb-17 03:33N 45°13' E 036°30'0 0.0
2017-Feb-17 02:33N 45°13' E 036°30'0 0.0
2017-Feb-17 01:33N 45°13' E 036°30'0 0.0
2017-Feb-17 00:30N 45°13' E 036°30'0 0.0
2017-Feb-16 23:21N 45°13' E 036°30'0 0.0
2017-Feb-16 22:27N 45°13' E 036°30'0 0.0
2017-Feb-16 20:27N 45°13' E 036°30'0 0.0
2017-Feb-16 19:24N 45°13' E 036°30'0 0.0
2017-Feb-16 18:33N 45°13' E 036°30'0 0.0
2017-Feb-16 17:21N 45°13' E 036°30'0 0.0
2017-Feb-16 16:33N 45°13' E 036°30'0 0.0
2017-Feb-16 15:33N 45°13' E 036°30'0 0.0
2017-Feb-16 14:30N 45°13' E 036°30'0 0.0
2017-Feb-16 13:33N 45°13' E 036°30'0 0.0
2017-Feb-16 12:30N 45°13' E 036°30'0 0.0
2017-Feb-16 11:33N 45°13' E 036°30'0 0.0
2017-Feb-16 10:33N 45°13' E 036°30'0 0.0
2017-Feb-16 09:33N 45°13' E 036°30'0 0.0
2017-Feb-16 08:33N 45°13' E 036°30'0 0.0
2017-Feb-16 07:33N 45°13' E 036°30'0 0.0
2017-Feb-16 06:33N 45°13' E 036°30'0 0.0
2017-Feb-16 05:33N 45°13' E 036°30'0 0.0
2017-Feb-16 04:33N 45°13' E 036°30'0 0.0
2017-Feb-16 03:33N 45°13' E 036°30'0 0.0
2017-Feb-16 02:33N 45°13' E 036°30'0 0.0
2017-Feb-16 01:33N 45°13' E 036°30'0 0.0
2017-Feb-16 00:33N 45°13' E 036°30'0 0.0
2017-Feb-15 23:33N 45°13' E 036°30'0 0.0
2017-Feb-15 22:33N 45°13' E 036°30'0 0.0
2017-Feb-15 21:27N 45°13' E 036°30'0 0.0
2017-Feb-15 20:33N 45°13' E 036°30'0 0.0
2017-Feb-15 19:30N 45°13' E 036°30'0 0.0
2017-Feb-15 18:24N 45°13' E 036°30'0 0.0
2017-Feb-15 17:33N 45°13' E 036°30'0 0.0
2017-Feb-15 16:33N 45°13' E 036°30'0 0.0
2017-Feb-15 15:33N 45°13' E 036°30'0 0.0
2017-Feb-15 14:32N 45°13' E 036°30'0 0.0
2017-Feb-15 13:32N 45°13' E 036°30'0 0.0
2017-Feb-15 12:32N 45°13' E 036°30'0 0.0
2017-Feb-15 11:32N 45°13' E 036°30'0 0.0
2017-Feb-15 10:29N 45°13' E 036°30'0 0.0
2017-Feb-15 09:32N 45°13' E 036°30'0 0.0
2017-Feb-15 08:29N 45°13' E 036°30'0 0.0
2017-Feb-15 07:32N 45°13' E 036°30'0 0.0
2017-Feb-15 06:32N 45°13' E 036°30'0 0.0
2017-Feb-15 05:29N 45°13' E 036°30'0 0.0
2017-Feb-15 04:23N 45°13' E 036°30'0 0.0
2017-Feb-15 03:32N 45°13' E 036°30'0 0.0
2017-Feb-15 02:29N 45°13' E 036°30'0 0.0
2017-Feb-15 01:32N 45°13' E 036°30'0 0.0
2017-Feb-15 00:32N 45°13' E 036°30'0 0.0
2017-Feb-14 23:32N 45°13' E 036°30'0 0.0
2017-Feb-14 22:32N 45°13' E 036°30'0 0.0
2017-Feb-14 21:26N 45°13' E 036°30'0 0.0
2017-Feb-14 20:29N 45°13' E 036°30'0 0.0
2017-Feb-14 19:29N 45°13' E 036°30'0 0.0
2017-Feb-14 18:29N 45°13' E 036°30'0 0.0
2017-Feb-14 17:32N 45°13' E 036°30'0 0.0
2017-Feb-14 16:32N 45°13' E 036°30'0 0.1
2017-Feb-14 15:32N 45°13' E 036°30'0 0.0
2017-Feb-14 14:32N 45°13' E 036°30'0 0.0
2017-Feb-14 13:32N 45°13' E 036°30'0 0.0
2017-Feb-14 12:32N 45°13' E 036°30'0 0.0
2017-Feb-14 11:32N 45°13' E 036°30'0 0.1
2017-Feb-14 10:32N 45°13' E 036°30'0 0.0
2017-Feb-14 09:26N 45°13' E 036°30'0 0.0
2017-Feb-14 08:29N 45°13' E 036°29'0 0.0
2017-Feb-14 07:29N 45°13' E 036°29'0 0.0
2017-Feb-14 06:32N 45°13' E 036°29'0 0.0
2017-Feb-14 05:32N 45°13' E 036°29'0 0.0
2017-Feb-14 04:32N 45°13' E 036°29'0 0.0
2017-Feb-14 03:32N 45°13' E 036°29'0 0.0
2017-Feb-14 02:32N 45°13' E 036°29'0 0.0
2017-Feb-14 01:32N 45°13' E 036°29'0 0.0
2017-Feb-14 00:32N 45°13' E 036°29'0 0.0
2017-Feb-13 23:32N 45°13' E 036°29'0 0.0
2017-Feb-13 22:32N 45°13' E 036°29'0 0.0
2017-Feb-13 21:32N 45°13' E 036°29'0 0.0
2017-Feb-13 20:05N 45°13' E 036°29'0 0.0
2017-Feb-13 12:23N 45°13' E 036°29'0 0.0
2017-Feb-13 11:32N 45°13' E 036°29'0 0.0
2017-Feb-13 08:32N 45°13' E 036°29'0 0.0
2017-Feb-13 07:17N 45°13' E 036°29'0 0.0
2017-Feb-13 06:08N 45°13' E 036°29'0 0.0
2017-Feb-13 05:23N 45°13' E 036°29'0 0.0
2017-Feb-12 23:20N 45°13' E 036°29'0 0.0
2017-Feb-12 22:17N 45°13' E 036°29'0 0.0
2017-Feb-12 17:17N 45°13' E 036°29'0 0.0
2017-Feb-12 12:32N 45°13' E 036°29'0 0.0
2017-Feb-12 09:26N 45°13' E 036°29'0 0.0
2017-Feb-11 21:29N 45°13' E 036°29'0 0.0
2017-Feb-11 20:05N 45°13' E 036°29'0 0.0
2017-Feb-11 19:32N 45°13' E 036°29'0 0.0
2017-Feb-11 17:32N 45°13' E 036°29'0 0.0
2017-Feb-11 09:32N 45°13' E 036°29'0 0.0
2017-Feb-11 08:20N 45°13' E 036°29'0 0.0
2017-Feb-11 07:32N 45°13' E 036°29'0 0.0
2017-Feb-11 06:32N 45°13' E 036°29'0 0.0
2017-Feb-10 14:11N 45°13' E 036°29'0 0.0
2017-Feb-10 12:26N 45°13' E 036°29'0 0.0
2017-Feb-10 11:32N 45°13' E 036°29'0 0.0
2017-Feb-10 10:29N 45°13' E 036°29'0 0.0
2017-Feb-10 08:32N 45°13' E 036°29'0 0.0
2017-Feb-10 06:17N 45°13' E 036°29'0 0.0
2017-Feb-09 21:11N 45°13' E 036°29'0 0.0
2017-Feb-09 19:29N 45°13' E 036°29'0 0.0
2017-Feb-09 18:14N 45°13' E 036°29'0 0.0
2017-Feb-09 17:29N 45°13' E 036°29'0 0.0
2017-Feb-09 16:23N 45°13' E 036°29'0 0.0
2017-Feb-09 15:32N 45°13' E 036°29'0 0.0
2017-Feb-09 14:23N 45°13' E 036°29'0 0.0
2017-Feb-09 12:23N 45°13' E 036°29'0 0.0
2017-Feb-09 11:32N 45°13' E 036°29'0 0.0
2017-Feb-09 10:32N 45°13' E 036°29'0 0.0
2017-Feb-09 09:32N 45°13' E 036°29'0 0.0
2017-Feb-09 08:32N 45°13' E 036°29'0 0.0
2017-Feb-09 07:32N 45°13' E 036°29'  
Track history (hours):
 
Tides and Currents Weather Stations Pressure Air Temp Water Temp Dewpoint Dewpoint Depression Visibility Wind Speed Wind Dir Waves Ship Positions

Cheyenne

Last reported at 2017-Feb-18 10:28 UTC. Time now 2017-Feb-23 16:06 UTC.
Position N 45°33' E 036°51'.

Length 133 m; draft 2.8 m.

Type: Ship. MMSI: 249607000.

Date/timePositionNaut miles runAvg speedWind from/ knotsBaromVisibWave heightAir tempDewpointWater temp
2017-Feb-18 10:28N 45°33' E 036°51'5 5.1
2017-Feb-18 09:28N 45°29' E 036°46'6 7.1
2017-Feb-18 08:33N 45°23' E 036°42'9 9.0
2017-Feb-18 07:33N 45°19' E 036°31'5 5.0
2017-Feb-18 06:33N 45°14' E 036°29'1 1.0
2017-Feb-18 05:24N 45°13' E 036°30'0 0.0
2017-Feb-18 04:30N 45°13' E 036°30'0 0.0
2017-Feb-18 02:09N 45°13' E 036°30'0 0.0
2017-Feb-18 01:33N 45°13' E 036°30'0 0.0
2017-Feb-18 00:09N 45°13' E 036°30'0 0.0
2017-Feb-17 22:21N 45°13' E 036°30'0 0.0
2017-Feb-17 20:24N 45°13' E 036°30'0 0.0
2017-Feb-17 19:24N 45°13' E 036°30'0 0.0
2017-Feb-17 18:33N 45°13' E 036°30'0 0.0
2017-Feb-17 17:21N 45°13' E 036°30'0 0.1
2017-Feb-17 16:30N 45°13' E 036°30'0 0.0
2017-Feb-17 15:06N 45°13' E 036°29'0 0.0
2017-Feb-17 14:33N 45°13' E 036°29'0 0.0
2017-Feb-17 13:30N 45°13' E 036°29'0 0.0
2017-Feb-17 12:30N 45°13' E 036°29'0 0.0
2017-Feb-17 11:33N 45°13' E 036°29'0 0.0
2017-Feb-17 10:33N 45°13' E 036°30'0 0.0
2017-Feb-17 09:33N 45°13' E 036°30'0 0.0
2017-Feb-17 08:30N 45°13' E 036°30'0 0.0
2017-Feb-17 07:33N 45°13' E 036°30'0 0.0
2017-Feb-17 06:27N 45°13' E 036°30'0 0.0
2017-Feb-17 05:33N 45°13' E 036°30'0 0.0
2017-Feb-17 04:30N 45°13' E 036°30'0 0.0
2017-Feb-17 03:33N 45°13' E 036°30'0 0.0
2017-Feb-17 02:33N 45°13' E 036°30'0 0.0
2017-Feb-17 01:33N 45°13' E 036°30'0 0.0
2017-Feb-17 00:30N 45°13' E 036°30'0 0.0
2017-Feb-16 23:21N 45°13' E 036°30'0 0.0
2017-Feb-16 22:27N 45°13' E 036°30'0 0.0
2017-Feb-16 20:27N 45°13' E 036°30'0 0.0
2017-Feb-16 19:24N 45°13' E 036°30'0 0.0
2017-Feb-16 18:33N 45°13' E 036°30'0 0.0
2017-Feb-16 17:21N 45°13' E 036°30'0 0.0
2017-Feb-16 16:33N 45°13' E 036°30'0 0.0
2017-Feb-16 15:33N 45°13' E 036°30'0 0.0
2017-Feb-16 14:30N 45°13' E 036°30'0 0.0
2017-Feb-16 13:33N 45°13' E 036°30'0 0.0
2017-Feb-16 12:30N 45°13' E 036°30'0 0.0
2017-Feb-16 11:33N 45°13' E 036°30'0 0.0
2017-Feb-16 10:33N 45°13' E 036°30'0 0.0
2017-Feb-16 09:33N 45°13' E 036°30'0 0.0
2017-Feb-16 08:33N 45°13' E 036°30'0 0.0
2017-Feb-16 07:33N 45°13' E 036°30'0 0.0
2017-Feb-16 06:33N 45°13' E 036°30'0 0.0
2017-Feb-16 05:33N 45°13' E 036°30'0 0.0
2017-Feb-16 04:33N 45°13' E 036°30'0 0.0
2017-Feb-16 03:33N 45°13' E 036°30'0 0.0
2017-Feb-16 02:33N 45°13' E 036°30'0 0.0
2017-Feb-16 01:33N 45°13' E 036°30'0 0.0
2017-Feb-16 00:33N 45°13' E 036°30'0 0.0
2017-Feb-15 23:33N 45°13' E 036°30'0 0.0
2017-Feb-15 22:33N 45°13' E 036°30'0 0.0
2017-Feb-15 21:27N 45°13' E 036°30'0 0.0
2017-Feb-15 20:33N 45°13' E 036°30'0 0.0
2017-Feb-15 19:30N 45°13' E 036°30'0 0.0
2017-Feb-15 18:24N 45°13' E 036°30'0 0.0
2017-Feb-15 17:33N 45°13' E 036°30'0 0.0
2017-Feb-15 16:33N 45°13' E 036°30'0 0.0
2017-Feb-15 15:33N 45°13' E 036°30'0 0.0
2017-Feb-15 14:32N 45°13' E 036°30'0 0.0
2017-Feb-15 13:32N 45°13' E 036°30'0 0.0
2017-Feb-15 12:32N 45°13' E 036°30'0 0.0
2017-Feb-15 11:32N 45°13' E 036°30'0 0.0
2017-Feb-15 10:29N 45°13' E 036°30'0 0.0
2017-Feb-15 09:32N 45°13' E 036°30'0 0.0
2017-Feb-15 08:29N 45°13' E 036°30'0 0.0
2017-Feb-15 07:32N 45°13' E 036°30'0 0.0
2017-Feb-15 06:32N 45°13' E 036°30'0 0.0
2017-Feb-15 05:29N 45°13' E 036°30'0 0.0
2017-Feb-15 04:23N 45°13' E 036°30'0 0.0
2017-Feb-15 03:32N 45°13' E 036°30'0 0.0
2017-Feb-15 02:29N 45°13' E 036°30'0 0.0
2017-Feb-15 01:32N 45°13' E 036°30'0 0.0
2017-Feb-15 00:32N 45°13' E 036°30'0 0.0
2017-Feb-14 23:32N 45°13' E 036°30'0 0.0
2017-Feb-14 22:32N 45°13' E 036°30'0 0.0
2017-Feb-14 21:26N 45°13' E 036°30'0 0.0
2017-Feb-14 20:29N 45°13' E 036°30'0 0.0
2017-Feb-14 19:29N 45°13' E 036°30'0 0.0
2017-Feb-14 18:29N 45°13' E 036°30'0 0.0
2017-Feb-14 17:32N 45°13' E 036°30'0 0.0
2017-Feb-14 16:32N 45°13' E 036°30'0 0.1
2017-Feb-14 15:32N 45°13' E 036°30'0 0.0
2017-Feb-14 14:32N 45°13' E 036°30'0 0.0
2017-Feb-14 13:32N 45°13' E 036°30'0 0.0
2017-Feb-14 12:32N 45°13' E 036°30'0 0.0
2017-Feb-14 11:32N 45°13' E 036°30'0 0.1
2017-Feb-14 10:32N 45°13' E 036°30'0 0.0
2017-Feb-14 09:26N 45°13' E 036°30'0 0.0
2017-Feb-14 08:29N 45°13' E 036°29'0 0.0
2017-Feb-14 07:29N 45°13' E 036°29'0 0.0
2017-Feb-14 06:32N 45°13' E 036°29'0 0.0
2017-Feb-14 05:32N 45°13' E 036°29'0 0.0
2017-Feb-14 04:32N 45°13' E 036°29'0 0.0
2017-Feb-14 03:32N 45°13' E 036°29'0 0.0
2017-Feb-14 02:32N 45°13' E 036°29'0 0.0
2017-Feb-14 01:32N 45°13' E 036°29'0 0.0
2017-Feb-14 00:32N 45°13' E 036°29'0 0.0
2017-Feb-13 23:32N 45°13' E 036°29'0 0.0
2017-Feb-13 22:32N 45°13' E 036°29'0 0.0
2017-Feb-13 21:32N 45°13' E 036°29'0 0.0
2017-Feb-13 20:05N 45°13' E 036°29'0 0.0
2017-Feb-13 12:23N 45°13' E 036°29'0 0.0
2017-Feb-13 11:32N 45°13' E 036°29'0 0.0
2017-Feb-13 08:32N 45°13' E 036°29'0 0.0
2017-Feb-13 07:17N 45°13' E 036°29'0 0.0
2017-Feb-13 06:08N 45°13' E 036°29'0 0.0
2017-Feb-13 05:23N 45°13' E 036°29'0 0.0
2017-Feb-12 23:20N 45°13' E 036°29'0 0.0
2017-Feb-12 22:17N 45°13' E 036°29'0 0.0
2017-Feb-12 17:17N 45°13' E 036°29'0 0.0
2017-Feb-12 12:32N 45°13' E 036°29'0 0.0
2017-Feb-12 09:26N 45°13' E 036°29'0 0.0
2017-Feb-11 21:29N 45°13' E 036°29'0 0.0
2017-Feb-11 20:05N 45°13' E 036°29'0 0.0
2017-Feb-11 19:32N 45°13' E 036°29'0 0.0
2017-Feb-11 17:32N 45°13' E 036°29'0 0.0
2017-Feb-11 09:32N 45°13' E 036°29'0 0.0
2017-Feb-11 08:20N 45°13' E 036°29'0 0.0
2017-Feb-11 07:32N 45°13' E 036°29'0 0.0
2017-Feb-11 06:32N 45°13' E 036°29'0 0.0
2017-Feb-10 14:11N 45°13' E 036°29'0 0.0
2017-Feb-10 12:26N 45°13' E 036°29'0 0.0
2017-Feb-10 11:32N 45°13' E 036°29'0 0.0
2017-Feb-10 10:29N 45°13' E 036°29'0 0.0
2017-Feb-10 08:32N 45°13' E 036°29'0 0.0
2017-Feb-10 06:17N 45°13' E 036°29'0 0.0
2017-Feb-09 21:11N 45°13' E 036°29'0 0.0
2017-Feb-09 19:29N 45°13' E 036°29'0 0.0
2017-Feb-09 18:14N 45°13' E 036°29'0 0.0
2017-Feb-09 17:29N 45°13' E 036°29'0 0.0
2017-Feb-09 16:23N 45°13' E 036°29'0 0.0
2017-Feb-09 15:32N 45°13' E 036°29'0 0.0
2017-Feb-09 14:23N 45°13' E 036°29'0 0.0
2017-Feb-09 12:23N 45°13' E 036°29'0 0.0
2017-Feb-09 11:32N 45°13' E 036°29'0 0.0
2017-Feb-09 10:32N 45°13' E 036°29'0 0.0
2017-Feb-09 09:32N 45°13' E 036°29'0 0.0
2017-Feb-09 08:32N 45°13' E 036°29'0 0.0
2017-Feb-09 07:32N 45°13' E 036°29'  

Dump ship's entire track history